sensor_id;sensor_type;location;lat;lon;timestamp;P1;durP1;ratioP1;P2;durP2;ratioP2
10191;SDS011;17580;50.850;4.504;2022-11-14T00:01:54;7.67;;;6.97;;
10191;SDS011;17580;50.850;4.504;2022-11-14T00:04:21;8.33;;;7.10;;
10191;SDS011;17580;50.850;4.504;2022-11-14T00:06:48;7.30;;;6.60;;
10191;SDS011;17580;50.850;4.504;2022-11-14T00:09:15;9.33;;;7.33;;
10191;SDS011;17580;50.850;4.504;2022-11-14T00:11:43;6.97;;;6.27;;
10191;SDS011;17580;50.850;4.504;2022-11-14T00:14:10;7.37;;;6.67;;
10191;SDS011;17580;50.850;4.504;2022-11-14T00:16:37;6.97;;;6.30;;
10191;SDS011;17580;50.850;4.504;2022-11-14T00:19:04;7.17;;;6.47;;
10191;SDS011;17580;50.850;4.504;2022-11-14T00:21:31;7.47;;;6.67;;
10191;SDS011;17580;50.850;4.504;2022-11-14T00:23:58;7.30;;;6.57;;
10191;SDS011;17580;50.850;4.504;2022-11-14T00:26:25;7.27;;;6.57;;
10191;SDS011;17580;50.850;4.504;2022-11-14T00:28:53;7.40;;;6.80;;
10191;SDS011;17580;50.850;4.504;2022-11-14T00:31:20;7.87;;;6.97;;
10191;SDS011;17580;50.850;4.504;2022-11-14T00:33:48;7.47;;;6.73;;
10191;SDS011;17580;50.850;4.504;2022-11-14T00:36:15;7.40;;;6.70;;
10191;SDS011;17580;50.850;4.504;2022-11-14T00:38:41;7.33;;;6.63;;
10191;SDS011;17580;50.850;4.504;2022-11-14T00:41:08;7.87;;;6.67;;
10191;SDS011;17580;50.850;4.504;2022-11-14T00:43:35;7.50;;;6.80;;
10191;SDS011;17580;50.850;4.504;2022-11-14T00:46:04;7.83;;;7.13;;
10191;SDS011;17580;50.850;4.504;2022-11-14T00:48:31;6.97;;;6.17;;
10191;SDS011;17580;50.850;4.504;2022-11-14T00:50:58;7.57;;;6.67;;
10191;SDS011;17580;50.850;4.504;2022-11-14T00:53:25;8.93;;;6.87;;
10191;SDS011;17580;50.850;4.504;2022-11-14T00:55:52;7.90;;;6.90;;
10191;SDS011;17580;50.850;4.504;2022-11-14T00:58:18;8.20;;;6.77;;
10191;SDS011;17580;50.850;4.504;2022-11-14T01:00:45;8.57;;;7.57;;
10191;SDS011;17580;50.850;4.504;2022-11-14T01:03:14;8.07;;;6.73;;
10191;SDS011;17580;50.850;4.504;2022-11-14T01:05:41;6.60;;;6.00;;
10191;SDS011;17580;50.850;4.504;2022-11-14T01:08:08;8.27;;;6.23;;
10191;SDS011;17580;50.850;4.504;2022-11-14T01:10:37;7.40;;;6.43;;
10191;SDS011;17580;50.850;4.504;2022-11-14T01:13:05;7.20;;;6.50;;
10191;SDS011;17580;50.850;4.504;2022-11-14T01:15:32;7.27;;;6.57;;
10191;SDS011;17580;50.850;4.504;2022-11-14T01:17:59;7.53;;;6.60;;
10191;SDS011;17580;50.850;4.504;2022-11-14T01:20:27;7.90;;;6.53;;
10191;SDS011;17580;50.850;4.504;2022-11-14T01:22:54;7.20;;;6.03;;
10191;SDS011;17580;50.850;4.504;2022-11-14T01:25:21;7.27;;;6.67;;
10191;SDS011;17580;50.850;4.504;2022-11-14T01:27:48;6.67;;;6.17;;
10191;SDS011;17580;50.850;4.504;2022-11-14T01:30:15;7.17;;;6.47;;
10191;SDS011;17580;50.850;4.504;2022-11-14T01:32:42;9.47;;;7.07;;
10191;SDS011;17580;50.850;4.504;2022-11-14T01:35:09;8.47;;;6.77;;
10191;SDS011;17580;50.850;4.504;2022-11-14T01:37:37;7.43;;;6.67;;
10191;SDS011;17580;50.850;4.504;2022-11-14T01:40:04;9.73;;;6.60;;
10191;SDS011;17580;50.850;4.504;2022-11-14T01:42:32;7.90;;;7.20;;
10191;SDS011;17580;50.850;4.504;2022-11-14T01:44:59;7.67;;;6.97;;
10191;SDS011;17580;50.850;4.504;2022-11-14T01:47:28;7.57;;;6.77;;
10191;SDS011;17580;50.850;4.504;2022-11-14T01:49:57;6.80;;;6.17;;
10191;SDS011;17580;50.850;4.504;2022-11-14T01:52:26;9.17;;;6.50;;
10191;SDS011;17580;50.850;4.504;2022-11-14T01:54:59;6.50;;;5.90;;
10191;SDS011;17580;50.850;4.504;2022-11-14T01:57:28;9.00;;;7.27;;
10191;SDS011;17580;50.850;4.504;2022-11-14T01:59:58;7.33;;;6.70;;
10191;SDS011;17580;50.850;4.504;2022-11-14T02:02:27;6.83;;;6.23;;
10191;SDS011;17580;50.850;4.504;2022-11-14T02:04:56;7.43;;;6.67;;
10191;SDS011;17580;50.850;4.504;2022-11-14T02:07:26;8.63;;;7.50;;
10191;SDS011;17580;50.850;4.504;2022-11-14T02:09:57;7.10;;;6.40;;
10191;SDS011;17580;50.850;4.504;2022-11-14T02:12:27;7.00;;;6.30;;
10191;SDS011;17580;50.850;4.504;2022-11-14T02:14:55;6.93;;;6.23;;
10191;SDS011;17580;50.850;4.504;2022-11-14T02:17:24;7.57;;;6.87;;
10191;SDS011;17580;50.850;4.504;2022-11-14T02:19:52;7.80;;;7.00;;
10191;SDS011;17580;50.850;4.504;2022-11-14T02:22:23;9.97;;;6.67;;
10191;SDS011;17580;50.850;4.504;2022-11-14T02:24:50;9.13;;;6.97;;
10191;SDS011;17580;50.850;4.504;2022-11-14T02:27:16;7.67;;;6.93;;
10191;SDS011;17580;50.850;4.504;2022-11-14T02:29:44;8.77;;;7.23;;
10191;SDS011;17580;50.850;4.504;2022-11-14T02:32:11;7.97;;;7.17;;
10191;SDS011;17580;50.850;4.504;2022-11-14T02:34:38;8.30;;;7.40;;
10191;SDS011;17580;50.850;4.504;2022-11-14T02:37:05;8.03;;;7.00;;
10191;SDS011;17580;50.850;4.504;2022-11-14T02:39:34;7.73;;;6.93;;
10191;SDS011;17580;50.850;4.504;2022-11-14T02:42:01;9.47;;;7.27;;
10191;SDS011;17580;50.850;4.504;2022-11-14T02:44:27;8.93;;;8.03;;
10191;SDS011;17580;50.850;4.504;2022-11-14T02:46:54;10.20;;;6.97;;
10191;SDS011;17580;50.850;4.504;2022-11-14T02:49:21;7.67;;;6.87;;
10191;SDS011;17580;50.850;4.504;2022-11-14T02:51:48;8.20;;;7.20;;
10191;SDS011;17580;50.850;4.504;2022-11-14T02:54:15;9.07;;;8.17;;
10191;SDS011;17580;50.850;4.504;2022-11-14T02:56:43;8.03;;;7.23;;
10191;SDS011;17580;50.850;4.504;2022-11-14T02:59:10;7.43;;;6.73;;
10191;SDS011;17580;50.850;4.504;2022-11-14T03:01:37;8.40;;;7.50;;
10191;SDS011;17580;50.850;4.504;2022-11-14T03:04:04;8.10;;;6.63;;
10191;SDS011;17580;50.850;4.504;2022-11-14T03:06:31;8.00;;;7.20;;
10191;SDS011;17580;50.850;4.504;2022-11-14T03:08:58;10.47;;;7.63;;
10191;SDS011;17580;50.850;4.504;2022-11-14T03:11:25;8.23;;;6.47;;
10191;SDS011;17580;50.850;4.504;2022-11-14T03:13:53;7.90;;;7.10;;
10191;SDS011;17580;50.850;4.504;2022-11-14T03:16:20;10.30;;;7.43;;
10191;SDS011;17580;50.850;4.504;2022-11-14T03:18:47;7.30;;;6.60;;
10191;SDS011;17580;50.850;4.504;2022-11-14T03:21:15;7.13;;;6.43;;
10191;SDS011;17580;50.850;4.504;2022-11-14T03:23:43;6.93;;;6.07;;
10191;SDS011;17580;50.850;4.504;2022-11-14T03:26:11;7.40;;;6.70;;
10191;SDS011;17580;50.850;4.504;2022-11-14T03:28:39;9.13;;;7.87;;
10191;SDS011;17580;50.850;4.504;2022-11-14T03:31:09;16.80;;;12.50;;
10191;SDS011;17580;50.850;4.504;2022-11-14T03:33:37;18.77;;;13.50;;
10191;SDS011;17580;50.850;4.504;2022-11-14T03:36:04;15.83;;;11.50;;
10191;SDS011;17580;50.850;4.504;2022-11-14T03:38:32;14.43;;;10.83;;
10191;SDS011;17580;50.850;4.504;2022-11-14T03:40:59;10.73;;;9.27;;
10191;SDS011;17580;50.850;4.504;2022-11-14T03:43:29;10.13;;;8.20;;
10191;SDS011;17580;50.850;4.504;2022-11-14T03:45:56;8.93;;;7.63;;
10191;SDS011;17580;50.850;4.504;2022-11-14T03:48:25;9.60;;;8.40;;
10191;SDS011;17580;50.850;4.504;2022-11-14T03:50:52;21.37;;;15.10;;
10191;SDS011;17580;50.850;4.504;2022-11-14T03:53:19;16.87;;;12.80;;
10191;SDS011;17580;50.850;4.504;2022-11-14T03:55:46;25.97;;;16.60;;
10191;SDS011;17580;50.850;4.504;2022-11-14T03:58:13;17.70;;;12.83;;
10191;SDS011;17580;50.850;4.504;2022-11-14T04:00:40;10.57;;;8.27;;
10191;SDS011;17580;50.850;4.504;2022-11-14T04:03:07;7.53;;;6.80;;
10191;SDS011;17580;50.850;4.504;2022-11-14T04:05:35;9.03;;;7.73;;
10191;SDS011;17580;50.850;4.504;2022-11-14T04:08:03;7.30;;;6.60;;
10191;SDS011;17580;50.850;4.504;2022-11-14T04:10:30;7.60;;;6.87;;
10191;SDS011;17580;50.850;4.504;2022-11-14T04:12:57;6.80;;;6.10;;
10191;SDS011;17580;50.850;4.504;2022-11-14T04:15:24;6.43;;;5.83;;
10191;SDS011;17580;50.850;4.504;2022-11-14T04:17:51;8.97;;;7.47;;
10191;SDS011;17580;50.850;4.504;2022-11-14T04:20:18;11.73;;;8.40;;
10191;SDS011;17580;50.850;4.504;2022-11-14T04:22:46;11.57;;;8.53;;
10191;SDS011;17580;50.850;4.504;2022-11-14T04:25:13;9.23;;;7.57;;
10191;SDS011;17580;50.850;4.504;2022-11-14T04:27:40;14.60;;;9.10;;
10191;SDS011;17580;50.850;4.504;2022-11-14T04:30:08;11.77;;;9.00;;
10191;SDS011;17580;50.850;4.504;2022-11-14T04:32:36;13.70;;;8.73;;
10191;SDS011;17580;50.850;4.504;2022-11-14T04:35:03;13.63;;;10.40;;
10191;SDS011;17580;50.850;4.504;2022-11-14T04:37:30;19.67;;;12.67;;
10191;SDS011;17580;50.850;4.504;2022-11-14T04:39:58;44.40;;;24.73;;
10191;SDS011;17580;50.850;4.504;2022-11-14T04:42:26;34.30;;;21.40;;
10191;SDS011;17580;50.850;4.504;2022-11-14T04:44:53;21.20;;;13.20;;
10191;SDS011;17580;50.850;4.504;2022-11-14T04:47:20;23.23;;;15.67;;
10191;SDS011;17580;50.850;4.504;2022-11-14T04:49:47;26.17;;;15.90;;
10191;SDS011;17580;50.850;4.504;2022-11-14T04:52:14;17.67;;;13.30;;
10191;SDS011;17580;50.850;4.504;2022-11-14T04:54:41;16.63;;;10.63;;
10191;SDS011;17580;50.850;4.504;2022-11-14T04:57:10;17.10;;;11.40;;
10191;SDS011;17580;50.850;4.504;2022-11-14T04:59:36;65.13;;;26.33;;
10191;SDS011;17580;50.850;4.504;2022-11-14T05:02:03;47.37;;;19.93;;
10191;SDS011;17580;50.850;4.504;2022-11-14T05:04:30;27.00;;;13.40;;
10191;SDS011;17580;50.850;4.504;2022-11-14T05:06:57;21.63;;;12.17;;
10191;SDS011;17580;50.850;4.504;2022-11-14T05:09:24;26.00;;;12.30;;
10191;SDS011;17580;50.850;4.504;2022-11-14T05:11:51;21.20;;;11.80;;
10191;SDS011;17580;50.850;4.504;2022-11-14T05:14:19;15.87;;;9.50;;
10191;SDS011;17580;50.850;4.504;2022-11-14T05:16:46;12.37;;;7.07;;
10191;SDS011;17580;50.850;4.504;2022-11-14T05:19:13;9.60;;;6.90;;
10191;SDS011;17580;50.850;4.504;2022-11-14T05:21:40;7.27;;;5.73;;
10191;SDS011;17580;50.850;4.504;2022-11-14T05:24:07;10.97;;;7.13;;
10191;SDS011;17580;50.850;4.504;2022-11-14T05:26:34;8.40;;;6.23;;
10191;SDS011;17580;50.850;4.504;2022-11-14T05:29:01;8.63;;;6.07;;
10191;SDS011;17580;50.850;4.504;2022-11-14T05:31:30;7.27;;;6.00;;
10191;SDS011;17580;50.850;4.504;2022-11-14T05:33:57;7.63;;;6.00;;
10191;SDS011;17580;50.850;4.504;2022-11-14T05:36:24;6.67;;;5.47;;
10191;SDS011;17580;50.850;4.504;2022-11-14T05:38:51;9.30;;;6.67;;
10191;SDS011;17580;50.850;4.504;2022-11-14T05:41:19;12.33;;;7.47;;
10191;SDS011;17580;50.850;4.504;2022-11-14T05:43:46;12.60;;;7.43;;
10191;SDS011;17580;50.850;4.504;2022-11-14T05:46:13;9.67;;;6.93;;
10191;SDS011;17580;50.850;4.504;2022-11-14T05:48:42;7.47;;;5.60;;
10191;SDS011;17580;50.850;4.504;2022-11-14T05:51:10;6.80;;;6.00;;
10191;SDS011;17580;50.850;4.504;2022-11-14T05:53:38;6.60;;;5.67;;
10191;SDS011;17580;50.850;4.504;2022-11-14T05:56:06;8.93;;;6.20;;
10191;SDS011;17580;50.850;4.504;2022-11-14T05:58:35;8.60;;;6.40;;
10191;SDS011;17580;50.850;4.504;2022-11-14T06:01:02;6.80;;;5.77;;
10191;SDS011;17580;50.850;4.504;2022-11-14T06:03:31;6.40;;;5.80;;
10191;SDS011;17580;50.850;4.504;2022-11-14T06:06:00;6.77;;;6.07;;
10191;SDS011;17580;50.850;4.504;2022-11-14T06:08:27;7.57;;;6.82;;
10191;SDS011;17580;50.850;4.504;2022-11-14T06:10:54;6.60;;;6.00;;
10191;SDS011;17580;50.850;4.504;2022-11-14T06:13:21;8.20;;;6.57;;
10191;SDS011;17580;50.850;4.504;2022-11-14T06:15:49;8.90;;;6.67;;
10191;SDS011;17580;50.850;4.504;2022-11-14T06:18:16;17.33;;;10.47;;
10191;SDS011;17580;50.850;4.504;2022-11-14T06:20:43;22.57;;;12.00;;
10191;SDS011;17580;50.850;4.504;2022-11-14T06:23:11;28.13;;;13.33;;
10191;SDS011;17580;50.850;4.504;2022-11-14T06:25:38;13.10;;;9.03;;
10191;SDS011;17580;50.850;4.504;2022-11-14T06:28:05;12.20;;;8.40;;
10191;SDS011;17580;50.850;4.504;2022-11-14T06:30:32;10.47;;;7.60;;
10191;SDS011;17580;50.850;4.504;2022-11-14T06:32:59;9.27;;;7.23;;
10191;SDS011;17580;50.850;4.504;2022-11-14T06:35:26;11.33;;;7.50;;
10191;SDS011;17580;50.850;4.504;2022-11-14T06:37:53;7.67;;;6.23;;
10191;SDS011;17580;50.850;4.504;2022-11-14T06:40:21;7.73;;;6.60;;
10191;SDS011;17580;50.850;4.504;2022-11-14T06:42:48;6.97;;;6.30;;
10191;SDS011;17580;50.850;4.504;2022-11-14T06:45:15;9.13;;;6.57;;
10191;SDS011;17580;50.850;4.504;2022-11-14T06:47:42;7.47;;;6.43;;
10191;SDS011;17580;50.850;4.504;2022-11-14T06:50:09;7.07;;;5.80;;
10191;SDS011;17580;50.850;4.504;2022-11-14T06:52:36;6.53;;;5.87;;
10191;SDS011;17580;50.850;4.504;2022-11-14T06:55:03;6.37;;;5.77;;
10191;SDS011;17580;50.850;4.504;2022-11-14T06:57:32;6.30;;;5.73;;
10191;SDS011;17580;50.850;4.504;2022-11-14T06:59:59;7.27;;;5.53;;
10191;SDS011;17580;50.850;4.504;2022-11-14T07:02:26;6.40;;;5.23;;
10191;SDS011;17580;50.850;4.504;2022-11-14T07:04:53;7.97;;;5.70;;
10191;SDS011;17580;50.850;4.504;2022-11-14T07:07:20;5.93;;;5.33;;
10191;SDS011;17580;50.850;4.504;2022-11-14T07:09:47;5.67;;;5.03;;
10191;SDS011;17580;50.850;4.504;2022-11-14T07:12:13;5.80;;;5.30;;
10191;SDS011;17580;50.850;4.504;2022-11-14T07:14:42;5.77;;;5.27;;
10191;SDS011;17580;50.850;4.504;2022-11-14T07:17:09;7.30;;;5.67;;
10191;SDS011;17580;50.850;4.504;2022-11-14T07:19:36;6.47;;;5.80;;
10191;SDS011;17580;50.850;4.504;2022-11-14T07:22:03;6.27;;;5.67;;
10191;SDS011;17580;50.850;4.504;2022-11-14T07:24:29;11.73;;;6.07;;
10191;SDS011;17580;50.850;4.504;2022-11-14T07:26:56;7.63;;;5.90;;
10191;SDS011;17580;50.850;4.504;2022-11-14T07:29:23;7.13;;;5.33;;
10191;SDS011;17580;50.850;4.504;2022-11-14T07:31:52;7.67;;;6.13;;
10191;SDS011;17580;50.850;4.504;2022-11-14T07:34:19;6.90;;;6.20;;
10191;SDS011;17580;50.850;4.504;2022-11-14T07:36:45;6.80;;;6.10;;
10191;SDS011;17580;50.850;4.504;2022-11-14T07:39:12;7.73;;;6.13;;
10191;SDS011;17580;50.850;4.504;2022-11-14T07:41:39;6.33;;;5.80;;
10191;SDS011;17580;50.850;4.504;2022-11-14T07:44:06;6.63;;;5.50;;
10191;SDS011;17580;50.850;4.504;2022-11-14T07:46:33;9.77;;;6.47;;
10191;SDS011;17580;50.850;4.504;2022-11-14T07:49:02;7.67;;;6.17;;
10191;SDS011;17580;50.850;4.504;2022-11-14T07:51:29;10.80;;;6.40;;
10191;SDS011;17580;50.850;4.504;2022-11-14T07:53:56;8.50;;;6.80;;
10191;SDS011;17580;50.850;4.504;2022-11-14T07:56:23;7.73;;;5.83;;
10191;SDS011;17580;50.850;4.504;2022-11-14T07:58:50;8.17;;;6.50;;
10191;SDS011;17580;50.850;4.504;2022-11-14T08:01:17;10.37;;;7.40;;
10191;SDS011;17580;50.850;4.504;2022-11-14T08:03:44;9.53;;;6.93;;
10191;SDS011;17580;50.850;4.504;2022-11-14T08:06:13;13.17;;;6.50;;
10191;SDS011;17580;50.850;4.504;2022-11-14T08:08:41;12.43;;;7.10;;
10191;SDS011;17580;50.850;4.504;2022-11-14T08:11:08;6.80;;;6.07;;
10191;SDS011;17580;50.850;4.504;2022-11-14T08:13:36;6.77;;;6.17;;
10191;SDS011;17580;50.850;4.504;2022-11-14T08:16:03;8.83;;;7.00;;
10191;SDS011;17580;50.850;4.504;2022-11-14T08:18:31;7.20;;;6.50;;
10191;SDS011;17580;50.850;4.504;2022-11-14T08:20:58;8.77;;;5.53;;
10191;SDS011;17580;50.850;4.504;2022-11-14T08:23:29;10.80;;;5.80;;
10191;SDS011;17580;50.850;4.504;2022-11-14T08:25:56;7.27;;;6.43;;
10191;SDS011;17580;50.850;4.504;2022-11-14T08:28:23;6.37;;;5.77;;
10191;SDS011;17580;50.850;4.504;2022-11-14T08:30:50;6.77;;;5.27;;
10191;SDS011;17580;50.850;4.504;2022-11-14T08:33:17;6.83;;;5.67;;
10191;SDS011;17580;50.850;4.504;2022-11-14T08:35:44;7.13;;;4.90;;
10191;SDS011;17580;50.850;4.504;2022-11-14T08:38:11;5.40;;;4.50;;
10191;SDS011;17580;50.850;4.504;2022-11-14T08:40:40;6.33;;;5.37;;
10191;SDS011;17580;50.850;4.504;2022-11-14T08:43:07;5.80;;;5.20;;
10191;SDS011;17580;50.850;4.504;2022-11-14T08:45:35;5.83;;;5.33;;
10191;SDS011;17580;50.850;4.504;2022-11-14T08:48:02;5.87;;;5.27;;
10191;SDS011;17580;50.850;4.504;2022-11-14T08:50:29;5.73;;;5.30;;
10191;SDS011;17580;50.850;4.504;2022-11-14T08:52:56;5.33;;;4.87;;
10191;SDS011;17580;50.850;4.504;2022-11-14T08:55:23;6.03;;;5.07;;
10191;SDS011;17580;50.850;4.504;2022-11-14T08:57:53;5.90;;;5.40;;
10191;SDS011;17580;50.850;4.504;2022-11-14T09:00:20;5.83;;;5.33;;
10191;SDS011;17580;50.850;4.504;2022-11-14T09:02:47;7.60;;;6.80;;
10191;SDS011;17580;50.850;4.504;2022-11-14T09:05:14;6.80;;;6.10;;
10191;SDS011;17580;50.850;4.504;2022-11-14T09:07:41;6.37;;;5.73;;
10191;SDS011;17580;50.850;4.504;2022-11-14T09:10:08;7.63;;;5.83;;
10191;SDS011;17580;50.850;4.504;2022-11-14T09:12:35;6.27;;;5.77;;
10191;SDS011;17580;50.850;4.504;2022-11-14T09:15:04;5.87;;;5.37;;
10191;SDS011;17580;50.850;4.504;2022-11-14T09:17:31;6.47;;;5.87;;
10191;SDS011;17580;50.850;4.504;2022-11-14T09:19:59;6.77;;;5.80;;
10191;SDS011;17580;50.850;4.504;2022-11-14T09:22:26;10.20;;;6.83;;
10191;SDS011;17580;50.850;4.504;2022-11-14T09:24:53;8.10;;;7.00;;
10191;SDS011;17580;50.850;4.504;2022-11-14T09:27:20;7.77;;;6.67;;
10191;SDS011;17580;50.850;4.504;2022-11-14T09:29:46;6.60;;;6.10;;
10191;SDS011;17580;50.850;4.504;2022-11-14T09:32:15;7.03;;;6.30;;
10191;SDS011;17580;50.850;4.504;2022-11-14T09:34:42;7.90;;;6.83;;
10191;SDS011;17580;50.850;4.504;2022-11-14T09:37:09;7.97;;;6.40;;
10191;SDS011;17580;50.850;4.504;2022-11-14T09:39:37;9.13;;;6.97;;
10191;SDS011;17580;50.850;4.504;2022-11-14T09:42:14;8.47;;;7.53;;
10191;SDS011;17580;50.850;4.504;2022-11-14T09:44:48;7.93;;;7.13;;
10191;SDS011;17580;50.850;4.504;2022-11-14T09:47:22;10.73;;;7.47;;
10191;SDS011;17580;50.850;4.504;2022-11-14T09:49:53;7.17;;;6.47;;
10191;SDS011;17580;50.850;4.504;2022-11-14T09:52:27;7.77;;;6.97;;
10191;SDS011;17580;50.850;4.504;2022-11-14T09:55:03;7.57;;;6.80;;
10191;SDS011;17580;50.850;4.504;2022-11-14T09:57:37;8.37;;;6.60;;
10191;SDS011;17580;50.850;4.504;2022-11-14T10:00:13;7.73;;;7.03;;
10191;SDS011;17580;50.850;4.504;2022-11-14T10:02:45;7.87;;;7.17;;
10191;SDS011;17580;50.850;4.504;2022-11-14T10:05:22;8.17;;;7.37;;
10191;SDS011;17580;50.850;4.504;2022-11-14T10:08:14;10.17;;;7.93;;
10191;SDS011;17580;50.850;4.504;2022-11-14T10:10:52;13.57;;;7.13;;
10191;SDS011;17580;50.850;4.504;2022-11-14T10:13:25;9.03;;;7.50;;
10191;SDS011;17580;50.850;4.504;2022-11-14T10:16:03;11.23;;;9.33;;
10191;SDS011;17580;50.850;4.504;2022-11-14T10:18:45;9.40;;;8.10;;
10191;SDS011;17580;50.850;4.504;2022-11-14T10:21:34;8.73;;;7.70;;
10191;SDS011;17580;50.850;4.504;2022-11-14T10:24:14;9.27;;;7.47;;
10191;SDS011;17580;50.850;4.504;2022-11-14T10:26:54;10.37;;;8.87;;
10191;SDS011;17580;50.850;4.504;2022-11-14T10:29:37;8.63;;;7.83;;
10191;SDS011;17580;50.850;4.504;2022-11-14T10:32:15;10.63;;;7.60;;
10191;SDS011;17580;50.850;4.504;2022-11-14T10:34:57;8.70;;;7.87;;
10191;SDS011;17580;50.850;4.504;2022-11-14T10:37:28;8.47;;;7.60;;
10191;SDS011;17580;50.850;4.504;2022-11-14T10:40:00;7.77;;;7.07;;
10191;SDS011;17580;50.850;4.504;2022-11-14T10:42:38;8.53;;;7.30;;
10191;SDS011;17580;50.850;4.504;2022-11-14T10:45:12;9.10;;;8.30;;
10191;SDS011;17580;50.850;4.504;2022-11-14T10:47:45;10.10;;;8.47;;
10191;SDS011;17580;50.850;4.504;2022-11-14T10:50:19;8.60;;;7.80;;
10191;SDS011;17580;50.850;4.504;2022-11-14T10:52:48;10.17;;;8.20;;
10191;SDS011;17580;50.850;4.504;2022-11-14T10:55:21;9.40;;;8.40;;
10191;SDS011;17580;50.850;4.504;2022-11-14T10:57:49;8.60;;;7.70;;
10191;SDS011;17580;50.850;4.504;2022-11-14T11:00:17;8.17;;;7.43;;
10191;SDS011;17580;50.850;4.504;2022-11-14T11:02:48;11.17;;;8.23;;
10191;SDS011;17580;50.850;4.504;2022-11-14T11:05:19;7.57;;;6.80;;
10191;SDS011;17580;50.850;4.504;2022-11-14T11:07:48;8.33;;;7.37;;
10191;SDS011;17580;50.850;4.504;2022-11-14T11:10:34;8.07;;;7.27;;
10191;SDS011;17580;50.850;4.504;2022-11-14T11:13:29;7.80;;;7.00;;
10191;SDS011;17580;50.850;4.504;2022-11-14T11:15:59;8.97;;;7.70;;
10191;SDS011;17580;50.850;4.504;2022-11-14T11:18:28;10.33;;;8.57;;
10191;SDS011;17580;50.850;4.504;2022-11-14T11:21:01;9.33;;;8.17;;
10191;SDS011;17580;50.850;4.504;2022-11-14T11:23:34;10.33;;;9.20;;
10191;SDS011;17580;50.850;4.504;2022-11-14T11:26:03;10.47;;;8.13;;
10191;SDS011;17580;50.850;4.504;2022-11-14T11:28:33;8.60;;;7.60;;
10191;SDS011;17580;50.850;4.504;2022-11-14T11:31:02;11.63;;;8.43;;
10191;SDS011;17580;50.850;4.504;2022-11-14T11:33:31;10.93;;;9.67;;
10191;SDS011;17580;50.850;4.504;2022-11-14T11:35:59;10.27;;;9.27;;
10191;SDS011;17580;50.850;4.504;2022-11-14T11:38:30;10.63;;;9.57;;
10191;SDS011;17580;50.850;4.504;2022-11-14T11:40:59;11.67;;;10.23;;
10191;SDS011;17580;50.850;4.504;2022-11-14T11:43:35;10.80;;;9.77;;
10191;SDS011;17580;50.850;4.504;2022-11-14T11:46:10;10.30;;;9.20;;
10191;SDS011;17580;50.850;4.504;2022-11-14T11:48:40;12.93;;;10.03;;
10191;SDS011;17580;50.850;4.504;2022-11-14T11:51:11;11.03;;;9.93;;
10191;SDS011;17580;50.850;4.504;2022-11-14T11:53:43;10.63;;;9.53;;
10191;SDS011;17580;50.850;4.504;2022-11-14T11:56:13;11.50;;;10.37;;
10191;SDS011;17580;50.850;4.504;2022-11-14T11:58:45;11.27;;;9.97;;
10191;SDS011;17580;50.850;4.504;2022-11-14T12:01:14;10.10;;;9.10;;
10191;SDS011;17580;50.850;4.504;2022-11-14T12:03:44;13.13;;;10.33;;
10191;SDS011;17580;50.850;4.504;2022-11-14T12:06:15;12.10;;;9.73;;
10191;SDS011;17580;50.850;4.504;2022-11-14T12:08:53;12.83;;;10.40;;
10191;SDS011;17580;50.850;4.504;2022-11-14T12:11:30;13.00;;;10.17;;
10191;SDS011;17580;50.850;4.504;2022-11-14T12:14:02;10.40;;;9.40;;
10191;SDS011;17580;50.850;4.504;2022-11-14T12:17:10;12.97;;;9.87;;
10191;SDS011;17580;50.850;4.504;2022-11-14T12:19:52;12.60;;;9.97;;
10191;SDS011;17580;50.850;4.504;2022-11-14T12:22:36;13.60;;;11.43;;
10191;SDS011;17580;50.850;4.504;2022-11-14T12:28:12;13.50;;;9.83;;
10191;SDS011;17580;50.850;4.504;2022-11-14T12:30:48;11.90;;;8.93;;
10191;SDS011;17580;50.850;4.504;2022-11-14T12:33:22;12.07;;;9.80;;
10191;SDS011;17580;50.850;4.504;2022-11-14T12:35:52;12.37;;;10.77;;
10191;SDS011;17580;50.850;4.504;2022-11-14T12:38:24;13.33;;;11.33;;
10191;SDS011;17580;50.850;4.504;2022-11-14T12:40:54;11.90;;;10.63;;
10191;SDS011;17580;50.850;4.504;2022-11-14T12:43:32;12.27;;;10.97;;
10191;SDS011;17580;50.850;4.504;2022-11-14T12:46:01;14.63;;;11.27;;
10191;SDS011;17580;50.850;4.504;2022-11-14T12:48:34;13.10;;;10.87;;
10191;SDS011;17580;50.850;4.504;2022-11-14T12:51:02;12.13;;;9.83;;
10191;SDS011;17580;50.850;4.504;2022-11-14T12:56:37;16.37;;;10.93;;
10191;SDS011;17580;50.850;4.504;2022-11-14T13:02:24;12.90;;;10.37;;
10191;SDS011;17580;50.850;4.504;2022-11-14T13:05:18;13.83;;;10.70;;
10191;SDS011;17580;50.850;4.504;2022-11-14T13:07:58;17.23;;;11.23;;
10191;SDS011;17580;50.850;4.504;2022-11-14T13:10:37;16.63;;;11.43;;
10191;SDS011;17580;50.850;4.504;2022-11-14T13:13:05;14.47;;;12.37;;
10191;SDS011;17580;50.850;4.504;2022-11-14T13:15:51;13.20;;;10.67;;
10191;SDS011;17580;50.850;4.504;2022-11-14T13:18:48;13.47;;;11.33;;
10191;SDS011;17580;50.850;4.504;2022-11-14T13:21:35;14.40;;;10.97;;
10191;SDS011;17580;50.850;4.504;2022-11-14T13:24:11;12.70;;;10.67;;
10191;SDS011;17580;50.850;4.504;2022-11-14T13:26:45;16.00;;;13.33;;
10191;SDS011;17580;50.850;4.504;2022-11-14T13:35:32;15.67;;;13.80;;
10191;SDS011;17580;50.850;4.504;2022-11-14T13:38:12;16.23;;;12.87;;
10191;SDS011;17580;50.850;4.504;2022-11-14T13:40:59;16.77;;;10.77;;
10191;SDS011;17580;50.850;4.504;2022-11-14T13:43:45;13.03;;;10.47;;
10191;SDS011;17580;50.850;4.504;2022-11-14T13:46:24;12.00;;;10.70;;
10191;SDS011;17580;50.850;4.504;2022-11-14T13:49:14;15.17;;;11.27;;
10191;SDS011;17580;50.850;4.504;2022-11-14T13:51:57;16.40;;;11.80;;
10191;SDS011;17580;50.850;4.504;2022-11-14T13:54:24;20.37;;;15.27;;
10191;SDS011;17580;50.850;4.504;2022-11-14T13:56:55;14.77;;;12.33;;
10191;SDS011;17580;50.850;4.504;2022-11-14T13:59:41;13.03;;;11.70;;
10191;SDS011;17580;50.850;4.504;2022-11-14T14:02:22;16.87;;;13.07;;
10191;SDS011;17580;50.850;4.504;2022-11-14T14:05:12;11.77;;;10.07;;
10191;SDS011;17580;50.850;4.504;2022-11-14T14:07:50;11.20;;;9.83;;
10191;SDS011;17580;50.850;4.504;2022-11-14T14:10:26;11.97;;;10.10;;
10191;SDS011;17580;50.850;4.504;2022-11-14T14:13:03;13.37;;;10.73;;
10191;SDS011;17580;50.850;4.504;2022-11-14T14:15:42;17.03;;;13.40;;
10191;SDS011;17580;50.850;4.504;2022-11-14T14:18:18;14.50;;;10.60;;
10191;SDS011;17580;50.850;4.504;2022-11-14T14:20:53;18.07;;;12.17;;
10191;SDS011;17580;50.850;4.504;2022-11-14T14:23:31;14.63;;;11.60;;
10191;SDS011;17580;50.850;4.504;2022-11-14T14:26:11;18.40;;;12.57;;
10191;SDS011;17580;50.850;4.504;2022-11-14T14:28:51;12.43;;;11.13;;
10191;SDS011;17580;50.850;4.504;2022-11-14T14:31:31;13.90;;;11.77;;
10191;SDS011;17580;50.850;4.504;2022-11-14T14:34:01;15.43;;;11.50;;
10191;SDS011;17580;50.850;4.504;2022-11-14T14:36:29;16.83;;;13.43;;
10191;SDS011;17580;50.850;4.504;2022-11-14T14:39:10;14.23;;;11.57;;
10191;SDS011;17580;50.850;4.504;2022-11-14T14:41:41;12.60;;;11.20;;
10191;SDS011;17580;50.850;4.504;2022-11-14T14:44:13;14.40;;;11.57;;
10191;SDS011;17580;50.850;4.504;2022-11-14T14:46:46;18.23;;;12.80;;
10191;SDS011;17580;50.850;4.504;2022-11-14T14:49:16;14.23;;;11.63;;
10191;SDS011;17580;50.850;4.504;2022-11-14T14:51:46;14.27;;;12.33;;
10191;SDS011;17580;50.850;4.504;2022-11-14T14:54:20;16.80;;;13.17;;
10191;SDS011;17580;50.850;4.504;2022-11-14T14:56:51;21.47;;;14.37;;
10191;SDS011;17580;50.850;4.504;2022-11-14T14:59:20;14.87;;;11.63;;
10191;SDS011;17580;50.850;4.504;2022-11-14T15:01:50;17.53;;;13.97;;
10191;SDS011;17580;50.850;4.504;2022-11-14T15:04:20;11.43;;;10.23;;
10191;SDS011;17580;50.850;4.504;2022-11-14T15:06:50;18.57;;;12.60;;
10191;SDS011;17580;50.850;4.504;2022-11-14T15:09:17;14.77;;;11.27;;
10191;SDS011;17580;50.850;4.504;2022-11-14T15:11:48;14.07;;;11.30;;